createdAt,value
2022-08-12T00:00:53.259Z,66.51
2022-08-12T00:03:38.982Z,66.99
2022-08-12T00:06:25.733Z,67.78
2022-08-12T00:09:11.547Z,67.55
2022-08-12T00:11:56.886Z,67.26
2022-08-12T00:14:42.588Z,68.04
2022-08-12T00:17:29.229Z,67.83
2022-08-12T00:20:14.744Z,67.68
2022-08-12T00:23:00.419Z,67.98
2022-08-12T00:26:21.253Z,68.29
2022-08-12T00:29:01.865Z,69.30
2022-08-12T00:31:46.980Z,69.70
2022-08-12T00:34:34.197Z,69.29
2022-08-12T00:37:19.966Z,69.41
2022-08-12T00:40:11.014Z,69.89
2022-08-12T00:42:39.746Z,69.92
2022-08-12T00:45:08.532Z,70.32
2022-08-12T00:47:37.369Z,70.71
2022-08-12T00:50:07.950Z,70.79
2022-08-12T00:52:36.390Z,71.44
2022-08-12T00:55:06.475Z,70.77
2022-08-12T00:57:37.412Z,70.58
2022-08-12T01:00:09.608Z,71.08
2022-08-12T01:02:40.640Z,71.39
2022-08-12T01:05:29.652Z,71.41
2022-08-12T01:08:15.192Z,71.87
2022-08-12T01:11:02.059Z,72.20
2022-08-12T01:13:31.412Z,72.80
2022-08-12T01:16:00.477Z,73.34
2022-08-12T01:18:30.202Z,73.84
2022-08-12T01:21:12.968Z,74.20
2022-08-12T01:24:29.478Z,73.65
2022-08-12T01:26:53.242Z,73.70
2022-08-12T01:29:26.256Z,74.35
2022-08-12T01:32:00.727Z,74.64
2022-08-12T01:34:36.270Z,74.37
2022-08-12T01:37:07.274Z,75.32
2022-08-12T01:39:36.982Z,75.20
2022-08-12T01:42:09.563Z,75.89
2022-08-12T01:44:38.647Z,74.98
2022-08-12T01:47:12.814Z,74.75
2022-08-12T01:49:52.232Z,74.85
2022-08-12T01:52:30.736Z,75.03
2022-08-12T01:55:01.158Z,74.78
2022-08-12T01:57:57.619Z,74.84
2022-08-12T02:00:44.902Z,74.78
2022-08-12T02:04:03.426Z,74.94
2022-08-12T02:06:52.874Z,75.51
2022-08-12T02:09:42.753Z,76.27
2022-08-12T02:12:15.750Z,76.98
2022-08-12T02:14:52.852Z,77.99
2022-08-12T02:17:55.674Z,79.31
2022-08-12T02:20:35.350Z,78.73
2022-08-12T02:23:20.318Z,77.79
2022-08-12T02:25:48.897Z,77.42
2022-08-12T02:28:16.869Z,77.82
2022-08-12T02:30:46.323Z,77.29
2022-08-12T02:33:15.005Z,76.98
2022-08-12T02:35:42.985Z,78.21
2022-08-12T02:38:12.584Z,83.77
2022-08-12T02:40:45.486Z,82.07
2022-08-12T02:43:17.392Z,82.33
2022-08-12T02:45:51.375Z,83.09
2022-08-12T02:48:23.225Z,83.12
2022-08-12T02:50:54.040Z,83.13
2022-08-12T02:53:22.316Z,87.17
2022-08-12T02:55:50.450Z,83.58
2022-08-12T02:58:19.814Z,81.59
2022-08-12T03:00:49.800Z,80.54
2022-08-12T03:03:20.691Z,80.12
2022-08-12T03:05:52.439Z,80.49
2022-08-12T03:08:32.736Z,80.49
2022-08-12T03:11:04.614Z,80.94
2022-08-12T03:13:36.640Z,81.08
2022-08-12T03:16:07.682Z,81.02
2022-08-12T03:18:36.397Z,81.27
2022-08-12T03:21:04.860Z,81.08
2022-08-12T03:23:32.875Z,81.22
2022-08-12T03:26:02.419Z,81.53
2022-08-12T03:28:51.842Z,82.53
2022-08-12T03:31:24.626Z,83.92
2022-08-12T03:34:01.778Z,83.97
2022-08-12T03:36:33.562Z,82.82
2022-08-12T03:39:16.752Z,87.12
2022-08-12T03:41:51.224Z,85.93
2022-08-12T03:44:42.219Z,85.26
2022-08-12T03:47:33.243Z,85.37
2022-08-12T03:50:19.005Z,85.55
2022-08-12T03:53:04.538Z,84.21
2022-08-12T03:55:49.766Z,84.02
2022-08-12T03:58:35.559Z,83.69
2022-08-12T04:01:03.680Z,84.56
2022-08-12T04:03:50.765Z,85.79
2022-08-12T04:06:34.533Z,86.42
2022-08-12T04:09:16.051Z,86.83
2022-08-12T04:12:15.124Z,86.47
2022-08-12T04:14:43.140Z,86.01
2022-08-12T04:17:12.026Z,85.45
2022-08-12T04:19:41.390Z,84.55
2022-08-12T04:22:09.953Z,84.89
2022-08-12T04:24:40.773Z,84.98
2022-08-12T04:27:10.844Z,84.47
2022-08-12T04:30:30.099Z,84.75
2022-08-12T04:32:27.607Z,84.37
2022-08-12T04:34:57.140Z,84.44
2022-08-12T04:37:25.098Z,84.65
2022-08-12T04:39:54.140Z,86.91
2022-08-12T04:42:23.838Z,86.93
2022-08-12T04:44:51.872Z,86.05
2022-08-12T04:47:21.306Z,85.09
2022-08-12T04:49:49.312Z,84.45
2022-08-12T04:52:19.066Z,84.01
2022-08-12T04:54:47.953Z,84.34
2022-08-12T04:57:16.106Z,84.66
2022-08-12T04:59:47.731Z,87.23
2022-08-12T05:02:21.455Z,85.22
2022-08-12T05:04:51.088Z,84.86
2022-08-12T05:07:20.561Z,84.77
2022-08-12T05:09:59.829Z,84.88
2022-08-12T05:12:34.345Z,84.66
2022-08-12T05:15:02.493Z,83.42
2022-08-12T05:17:30.476Z,83.58
2022-08-12T05:19:59.880Z,87.54
2022-08-12T05:22:30.106Z,85.57
2022-08-12T05:24:58.159Z,92.36
2022-08-12T05:27:28.291Z,85.21
2022-08-12T05:30:05.362Z,84.71
2022-08-12T05:32:37.588Z,84.90
2022-08-12T05:35:08.249Z,88.17
2022-08-12T05:37:37.614Z,93.46
2022-08-12T05:40:11.043Z,86.11
2022-08-12T05:42:39.585Z,84.91
2022-08-12T05:45:09.126Z,85.82
2022-08-12T05:47:53.399Z,87.95
2022-08-12T05:50:22.427Z,85.84
2022-08-12T05:52:53.002Z,89.53
2022-08-12T05:55:25.885Z,84.66
2022-08-12T05:57:56.689Z,83.68
2022-08-12T06:00:26.004Z,83.05
2022-08-12T06:02:56.501Z,83.22
2022-08-12T06:05:24.696Z,87.81
2022-08-12T06:08:01.836Z,81.00
2022-08-12T06:10:32.930Z,80.80
2022-08-12T06:13:02.592Z,82.02
2022-08-12T06:15:31.606Z,86.88
2022-08-12T06:18:11.555Z,89.09
2022-08-12T06:20:43.419Z,83.04
2022-08-12T06:23:15.401Z,81.81
2022-08-12T06:25:43.666Z,89.50
2022-08-12T06:28:17.856Z,86.31
2022-08-12T06:31:02.656Z,84.88
2022-08-12T06:33:55.827Z,82.96
2022-08-12T06:36:29.904Z,86.73
2022-08-12T06:42:33.068Z,82.22
2022-08-12T06:45:01.727Z,81.48
2022-08-12T06:47:29.787Z,79.45
2022-08-12T06:49:58.007Z,80.13
2022-08-12T06:52:26.216Z,84.59
2022-08-12T06:54:55.847Z,80.06
2022-08-12T06:58:05.701Z,80.43
2022-08-12T07:00:16.879Z,77.08
2022-08-12T07:02:46.400Z,75.86
2022-08-12T07:05:14.401Z,75.41
2022-08-12T07:07:42.602Z,74.98
2022-08-12T07:10:12.809Z,75.10
2022-08-12T07:12:40.978Z,80.91
2022-08-12T07:15:10.192Z,79.87
2022-08-12T07:17:38.329Z,80.02
2022-08-12T07:20:09.995Z,76.26
2022-08-12T07:22:41.899Z,74.90
2022-08-12T07:25:29.621Z,73.86
2022-08-12T07:28:16.452Z,74.01
2022-08-12T07:30:46.244Z,74.24
2022-08-12T07:33:16.938Z,74.11
2022-08-12T07:35:48.035Z,73.66
2022-08-12T07:38:29.914Z,73.54
2022-08-12T07:41:03.370Z,78.27
2022-08-12T07:43:32.967Z,73.56
2022-08-12T07:46:02.595Z,74.60
2022-08-12T07:48:37.069Z,81.22
2022-08-12T07:51:05.747Z,74.46
2022-08-12T07:53:50.176Z,72.90
2022-08-12T07:56:27.522Z,72.03
2022-08-12T07:58:59.499Z,75.10
2022-08-12T08:01:28.286Z,70.74
2022-08-12T08:04:18.734Z,75.45
2022-08-12T08:06:48.533Z,70.97
2022-08-12T08:09:18.441Z,70.70
2022-08-12T08:12:05.507Z,71.12
2022-08-12T08:14:34.312Z,71.53
2022-08-12T08:17:08.703Z,69.19
2022-08-12T08:20:03.252Z,69.38
2022-08-12T08:22:41.660Z,68.77
2022-08-12T08:25:35.192Z,68.48
2022-08-12T08:28:04.892Z,67.90
2022-08-12T08:30:38.357Z,67.00
2022-08-12T08:33:24.546Z,67.52
2022-08-12T08:35:57.434Z,68.24
2022-08-12T08:38:33.304Z,66.79
2022-08-12T08:42:16.428Z,67.53
2022-08-12T08:44:28.693Z,65.87
2022-08-12T08:46:56.836Z,68.07
2022-08-12T08:49:34.348Z,67.19
2022-08-12T08:52:12.781Z,64.55
2022-08-12T08:55:01.045Z,63.17
2022-08-12T08:57:44.153Z,62.51
2022-08-12T09:00:17.785Z,61.32
2022-08-12T09:02:58.564Z,60.36
2022-08-12T09:06:01.540Z,58.54
2022-08-12T09:08:26.808Z,59.21
2022-08-12T09:10:59.908Z,57.33
2022-08-12T09:14:11.823Z,59.04
2022-08-12T09:16:30.029Z,55.79
2022-08-12T09:19:37.125Z,55.29
2022-08-12T09:22:29.271Z,54.84
2022-08-12T09:26:04.290Z,54.52
2022-08-12T09:32:03.373Z,51.66
2022-08-12T09:34:42.425Z,51.17
2022-08-12T09:37:19.949Z,51.44
2022-08-12T09:40:04.631Z,50.96
2022-08-12T09:43:16.072Z,49.67
2022-08-12T09:48:36.245Z,50.14
2022-08-12T09:51:22.468Z,49.84
2022-08-12T09:54:33.488Z,48.02
2022-08-12T09:58:59.037Z,47.24
2022-08-12T10:01:15.438Z,46.13
2022-08-12T10:04:23.691Z,46.20
2022-08-12T10:10:27.011Z,45.23
2022-08-12T10:13:41.128Z,44.89
2022-08-12T10:19:51.943Z,45.95
2022-08-12T10:22:40.934Z,43.59
2022-08-12T10:26:37.469Z,43.23
2022-08-12T10:38:43.800Z,42.17
2022-08-12T10:41:57.994Z,42.20
2022-08-12T10:45:17.043Z,42.42
2022-08-12T10:48:21.401Z,41.76
2022-08-12T10:52:04.401Z,40.49
2022-08-12T11:04:18.021Z,38.49
2022-08-12T11:07:02.017Z,38.61
2022-08-12T11:08:34.868Z,38.29
2022-08-12T11:10:50.152Z,38.19
2022-08-12T11:13:20.542Z,37.27
2022-08-12T11:16:22.672Z,37.03
2022-08-12T11:19:03.007Z,36.27
2022-08-12T11:21:51.400Z,36.65
2022-08-12T11:25:11.527Z,35.18
2022-08-12T11:27:51.569Z,36.61
2022-08-12T11:31:13.986Z,36.66
2022-08-12T11:34:05.048Z,34.75
2022-08-12T11:44:34.986Z,34.85
2022-08-12T11:52:26.517Z,33.84
2022-08-12T11:55:25.721Z,33.98
2022-08-12T12:02:03.066Z,33.27
2022-08-12T12:17:38.076Z,32.63
2022-08-12T12:19:15.888Z,30.58
2022-08-12T12:22:33.529Z,32.45
2022-08-12T12:26:07.461Z,32.48
2022-08-12T12:29:01.065Z,32.20
2022-08-12T12:32:09.440Z,31.23
2022-08-12T12:34:30.399Z,31.79
2022-08-12T12:37:02.828Z,29.58
2022-08-12T12:39:54.883Z,31.88
2022-08-12T12:42:43.040Z,31.24
2022-08-12T12:45:19.684Z,30.60
2022-08-12T12:48:10.771Z,29.38
2022-08-12T12:50:55.021Z,28.84
2022-08-12T12:54:08.639Z,29.35
2022-08-12T12:56:17.151Z,30.58
2022-08-12T12:58:49.814Z,30.57
2022-08-12T13:01:26.909Z,30.43
2022-08-12T13:04:02.123Z,28.37
2022-08-12T13:06:30.765Z,27.89
2022-08-12T13:09:02.667Z,30.05
2022-08-12T13:11:41.358Z,28.83
2022-08-12T13:14:27.913Z,28.20
2022-08-12T13:16:58.527Z,29.92
2022-08-12T13:19:36.676Z,29.18
2022-08-12T13:22:20.086Z,29.62
2022-08-12T13:24:54.567Z,29.60
2022-08-12T13:27:22.960Z,28.39
2022-08-12T13:30:03.884Z,28.94
2022-08-12T13:32:32.330Z,29.49
2022-08-12T13:35:04.012Z,28.85
2022-08-12T13:37:43.653Z,27.98
2022-08-12T13:40:21.124Z,28.37
2022-08-12T13:42:57.770Z,29.24
2022-08-12T13:45:29.082Z,28.90
2022-08-12T13:47:58.345Z,27.68
2022-08-12T13:50:32.608Z,28.84
2022-08-12T13:53:24.223Z,27.28
2022-08-12T13:56:01.921Z,27.57
2022-08-12T13:58:40.863Z,28.54
2022-08-12T14:01:20.635Z,28.30
2022-08-12T14:03:56.593Z,27.81
2022-08-12T14:06:32.065Z,28.33
2022-08-12T14:09:00.716Z,26.61
2022-08-12T14:15:08.172Z,28.02
2022-08-12T14:17:52.278Z,28.00
2022-08-12T14:20:27.791Z,28.23
2022-08-12T14:24:01.587Z,26.84
2022-08-12T14:26:21.503Z,27.96
2022-08-12T14:29:04.324Z,25.50
2022-08-12T14:31:37.719Z,27.61
2022-08-12T14:38:01.712Z,27.15
2022-08-12T14:40:18.833Z,27.07
2022-08-12T14:43:01.580Z,27.59
2022-08-12T14:46:01.926Z,27.58
2022-08-12T14:48:50.728Z,27.00
2022-08-12T14:52:44.146Z,25.53
2022-08-12T14:57:20.120Z,26.67
2022-08-12T15:03:06.331Z,26.98
2022-08-12T15:06:03.554Z,26.32
2022-08-12T15:08:52.543Z,25.80
2022-08-12T15:11:54.842Z,26.39
2022-08-12T15:15:08.275Z,27.06
2022-08-12T15:17:47.682Z,25.85
2022-08-12T15:20:32.507Z,26.67
2022-08-12T15:23:17.698Z,26.01
2022-08-12T15:26:02.483Z,26.51
2022-08-12T15:28:32.842Z,26.00
2022-08-12T15:31:02.442Z,25.63
2022-08-12T15:33:44.800Z,24.65
2022-08-12T15:36:16.885Z,25.02
2022-08-12T15:38:47.710Z,25.13
2022-08-12T15:41:23.649Z,24.44
2022-08-12T15:44:36.543Z,25.06
2022-08-12T15:46:41.335Z,25.02
2022-08-12T15:49:17.141Z,25.23
2022-08-12T15:51:58.601Z,25.42
2022-08-12T15:54:34.644Z,24.77
2022-08-12T15:57:08.219Z,25.71
2022-08-12T16:00:02.346Z,24.88
2022-08-12T16:02:29.910Z,23.99
2022-08-12T16:06:10.297Z,25.37
2022-08-12T16:08:03.217Z,25.14
2022-08-12T16:10:32.044Z,24.62
2022-08-12T16:13:13.130Z,23.29
2022-08-12T16:15:51.207Z,23.21
2022-08-12T16:18:31.019Z,24.71
2022-08-12T16:21:51.882Z,25.00
2022-08-12T16:24:28.274Z,24.55
2022-08-12T16:26:57.977Z,21.84
2022-08-12T16:29:52.519Z,24.05
2022-08-12T16:32:24.050Z,21.70
2022-08-12T16:34:58.093Z,23.78
2022-08-12T16:38:49.933Z,24.54
2022-08-12T16:41:20.167Z,23.39
2022-08-12T16:43:49.138Z,23.23
2022-08-12T16:46:31.468Z,23.08
2022-08-12T16:49:04.207Z,23.18
2022-08-12T16:51:40.697Z,23.02
2022-08-12T16:54:14.133Z,22.35
2022-08-12T16:56:51.132Z,23.53
2022-08-12T16:59:53.399Z,21.54
2022-08-12T17:02:33.829Z,23.59
2022-08-12T17:05:04.842Z,24.23
2022-08-12T17:07:43.819Z,23.70
2022-08-12T17:10:36.027Z,23.77
2022-08-12T17:13:09.912Z,21.58
2022-08-12T17:15:57.137Z,23.97
2022-08-12T17:18:42.902Z,22.93
2022-08-12T17:21:17.302Z,24.21
2022-08-12T17:23:53.431Z,24.24
2022-08-12T17:26:30.853Z,24.04
2022-08-12T17:29:00.279Z,24.13
2022-08-12T17:32:01.338Z,22.72
2022-08-12T17:34:33.465Z,24.00
2022-08-12T17:37:05.124Z,22.22
2022-08-12T17:40:14.937Z,25.10
2022-08-12T17:42:32.890Z,25.83
2022-08-12T17:45:17.959Z,26.61
2022-08-12T17:48:04.945Z,26.20
2022-08-12T17:50:39.660Z,27.80
2022-08-12T17:53:10.164Z,28.86
2022-08-12T17:55:47.386Z,29.67
2022-08-12T17:58:17.482Z,29.78
2022-08-12T18:00:48.123Z,30.47
2022-08-12T18:04:05.586Z,30.85
2022-08-12T18:06:13.645Z,30.98
2022-08-12T18:08:53.414Z,31.84
2022-08-12T18:12:04.664Z,31.71
2022-08-12T18:14:28.616Z,31.67
2022-08-12T18:17:00.306Z,31.48
2022-08-12T18:20:03.591Z,33.90
2022-08-12T18:22:30.345Z,33.54
2022-08-12T18:25:04.237Z,34.89
2022-08-12T18:27:44.621Z,35.13
2022-08-12T18:30:20.982Z,36.79
2022-08-12T18:33:04.016Z,35.21
2022-08-12T18:35:47.719Z,36.57
2022-08-12T18:38:25.242Z,39.08
2022-08-12T18:41:11.498Z,37.82
2022-08-12T18:44:02.529Z,39.31
2022-08-12T18:46:53.345Z,40.37
2022-08-12T18:49:29.737Z,38.45
2022-08-12T18:52:04.380Z,44.06
2022-08-12T18:54:41.384Z,39.28
2022-08-12T18:57:45.809Z,40.11
2022-08-12T19:00:09.843Z,40.14
2022-08-12T19:02:39.887Z,39.98
2022-08-12T19:05:11.132Z,42.31
2022-08-12T19:07:57.713Z,40.34
2022-08-12T19:10:30.780Z,41.90
2022-08-12T19:13:23.017Z,41.74
2022-08-12T19:15:53.581Z,41.14
2022-08-12T19:18:22.221Z,42.38
2022-08-12T19:20:50.831Z,41.29
2022-08-12T19:23:20.968Z,42.64
2022-08-12T19:26:01.517Z,44.42
2022-08-12T19:28:35.442Z,42.78
2022-08-12T19:31:44.767Z,43.61
2022-08-12T19:34:56.269Z,42.92
2022-08-12T19:37:20.164Z,44.20
2022-08-12T19:40:09.151Z,47.34
2022-08-12T19:42:44.862Z,46.34
2022-08-12T19:45:16.849Z,44.90
2022-08-12T19:47:46.781Z,44.98
2022-08-12T19:50:20.323Z,48.60
2022-08-12T19:52:51.254Z,45.89
2022-08-12T19:55:21.792Z,46.97
2022-08-12T19:58:02.710Z,46.84
2022-08-12T20:00:34.686Z,48.05
2022-08-12T20:03:04.523Z,50.88
2022-08-12T20:06:04.739Z,48.69
2022-08-12T20:08:37.942Z,51.93
2022-08-12T20:12:15.109Z,48.71
2022-08-12T20:14:03.904Z,54.07
2022-08-12T20:16:52.356Z,55.28
2022-08-12T20:19:52.299Z,61.12
2022-08-12T20:22:24.254Z,53.15
2022-08-12T20:25:01.549Z,61.45
2022-08-12T20:28:03.508Z,53.44
2022-08-12T20:30:52.651Z,56.21
2022-08-12T20:33:17.478Z,52.85
2022-08-12T20:38:49.257Z,51.07
2022-08-12T20:41:22.191Z,50.58
2022-08-12T20:44:05.157Z,50.75
2022-08-12T20:46:53.367Z,51.25
2022-08-12T20:49:21.690Z,50.98
2022-08-12T20:51:56.110Z,50.72
2022-08-12T20:54:32.255Z,50.42
2022-08-12T20:57:07.463Z,50.90
2022-08-12T20:59:48.152Z,51.08
2022-08-12T21:02:24.753Z,50.82
2022-08-12T21:06:09.485Z,51.04
2022-08-12T21:08:18.567Z,51.13
2022-08-12T21:10:51.267Z,51.09
2022-08-12T21:13:20.947Z,52.36
2022-08-12T21:15:55.105Z,53.17
2022-08-12T21:18:30.574Z,54.84
2022-08-12T21:21:00.008Z,56.83
2022-08-12T21:23:30.637Z,57.44
2022-08-12T21:26:11.226Z,58.33
2022-08-12T21:28:41.580Z,58.58
2022-08-12T21:32:39.196Z,59.11
2022-08-12T21:34:17.978Z,58.12
2022-08-12T21:36:49.558Z,58.17
2022-08-12T21:39:21.826Z,58.65
2022-08-12T21:41:52.635Z,59.35
2022-08-12T21:44:32.658Z,60.03
2022-08-12T21:47:19.571Z,59.30
2022-08-12T21:49:53.851Z,58.89
2022-08-12T21:52:34.069Z,59.13
2022-08-12T21:55:03.541Z,58.98
2022-08-12T21:57:36.481Z,58.91
2022-08-12T22:00:19.874Z,58.87
2022-08-12T22:03:05.314Z,58.98
2022-08-12T22:05:57.390Z,58.67
2022-08-12T22:08:26.205Z,58.96
2022-08-12T22:10:56.286Z,58.90
2022-08-12T22:14:07.429Z,59.43
2022-08-12T22:16:13.958Z,60.59
2022-08-12T22:18:55.342Z,60.48
2022-08-12T22:21:24.963Z,61.12
2022-08-12T22:24:05.307Z,61.89
2022-08-12T22:26:37.358Z,62.86
2022-08-12T22:29:23.998Z,63.37
2022-08-12T22:32:00.509Z,63.71
2022-08-12T22:34:34.984Z,65.83
2022-08-12T22:37:19.588Z,65.17
2022-08-12T22:39:49.177Z,64.77
2022-08-12T22:42:35.309Z,65.11
2022-08-12T22:45:23.397Z,64.44
2022-08-12T22:47:54.840Z,64.55
2022-08-12T22:50:26.993Z,63.94
2022-08-12T22:53:15.473Z,63.73
2022-08-12T22:55:59.687Z,64.20
2022-08-12T22:58:34.158Z,64.96
2022-08-12T23:01:03.471Z,65.66
2022-08-12T23:03:48.391Z,65.60
2022-08-12T23:06:19.569Z,65.87
2022-08-12T23:08:49.978Z,66.28
2022-08-12T23:11:23.502Z,67.17
2022-08-12T23:13:54.718Z,67.11
2022-08-12T23:16:30.953Z,68.08
2022-08-12T23:19:10.939Z,68.21
2022-08-12T23:22:05.005Z,68.23
2022-08-12T23:24:55.416Z,68.44
2022-08-12T23:27:51.330Z,68.30
2022-08-12T23:30:25.035Z,67.76
2022-08-12T23:33:01.398Z,67.69
2022-08-12T23:35:58.789Z,67.93
2022-08-12T23:38:30.634Z,69.09
2022-08-12T23:41:05.692Z,70.54
2022-08-12T23:43:39.238Z,70.76
2022-08-12T23:46:09.997Z,70.88
2022-08-12T23:48:38.712Z,72.37
2022-08-12T23:51:22.149Z,72.90
2022-08-12T23:53:54.643Z,73.59
2022-08-12T23:56:26.051Z,72.47
2022-08-12T23:59:00.251Z,73.23
